createdAt,value
2023-02-11T00:01:22.229Z,4.20
2023-02-11T00:03:48.960Z,4.20
2023-02-11T00:06:15.881Z,4.40
2023-02-11T00:08:42.592Z,4.30
2023-02-11T00:11:16.161Z,4.30
2023-02-11T00:13:44.286Z,4.20
2023-02-11T00:16:18.261Z,4.20
2023-02-11T00:18:45.073Z,4.30
2023-02-11T00:21:14.184Z,4.30
2023-02-11T00:23:41.304Z,4.30
2023-02-11T00:26:20.928Z,4.40
2023-02-11T00:28:49.054Z,4.40
2023-02-11T00:31:17.047Z,4.40
2023-02-11T00:33:44.612Z,4.40
2023-02-11T00:36:24.005Z,4.30
2023-02-11T00:38:52.345Z,4.40
2023-02-11T00:41:19.883Z,4.40
2023-02-11T00:43:46.990Z,4.40
2023-02-11T00:46:14.142Z,4.40
2023-02-11T00:48:41.504Z,4.50
2023-02-11T00:51:08.731Z,4.50
2023-02-11T00:53:36.100Z,4.50
2023-02-11T00:56:03.320Z,4.50
2023-02-11T00:58:30.414Z,4.50
2023-02-11T01:00:57.470Z,4.60
2023-02-11T01:03:24.301Z,4.60
2023-02-11T01:05:51.280Z,4.70
2023-02-11T01:08:18.168Z,4.70
2023-02-11T01:10:45.096Z,4.70
2023-02-11T01:13:12.101Z,4.70
2023-02-11T01:15:38.849Z,4.70
2023-02-11T01:18:05.941Z,4.60
2023-02-11T01:20:32.706Z,4.60
2023-02-11T01:22:59.479Z,4.60
2023-02-11T01:25:26.205Z,4.60
2023-02-11T01:27:52.892Z,4.70
2023-02-11T01:30:19.642Z,4.70
2023-02-11T01:32:46.360Z,4.80
2023-02-11T01:35:13.017Z,4.80
2023-02-11T01:37:39.738Z,4.80
2023-02-11T01:40:11.527Z,4.80
2023-02-11T01:42:38.394Z,4.80
2023-02-11T01:45:46.157Z,4.80
2023-02-11T01:48:21.422Z,4.80
2023-02-11T01:50:53.420Z,4.80
2023-02-11T01:53:39.422Z,4.90
2023-02-11T01:56:25.981Z,4.80
2023-02-11T01:59:01.191Z,4.80
2023-02-11T02:01:31.566Z,4.90
2023-02-11T02:04:01.493Z,4.90
2023-02-11T02:06:55.096Z,4.80
2023-02-11T02:09:29.751Z,4.90
2023-02-11T02:11:56.464Z,4.90
2023-02-11T02:14:23.177Z,4.90
2023-02-11T02:16:50.322Z,4.90
2023-02-11T02:19:30.015Z,4.90
2023-02-11T02:21:56.703Z,5.00
2023-02-11T02:24:26.417Z,5.00
2023-02-11T02:27:04.420Z,5.10
2023-02-11T02:29:54.474Z,5.10
2023-02-11T02:32:28.373Z,5.10
2023-02-11T02:35:08.175Z,5.10
2023-02-11T02:37:55.029Z,5.00
2023-02-11T02:40:32.395Z,5.00
2023-02-11T02:43:01.258Z,5.10
2023-02-11T02:45:27.953Z,5.00
2023-02-11T02:47:54.638Z,5.00
2023-02-11T02:50:30.124Z,5.00
2023-02-11T02:53:18.848Z,5.00
2023-02-11T02:56:10.529Z,5.10
2023-02-11T02:58:55.572Z,5.10
2023-02-11T03:01:45.440Z,5.10
2023-02-11T03:04:22.704Z,5.00
2023-02-11T03:07:01.446Z,5.10
2023-02-11T03:09:40.397Z,5.10
2023-02-11T03:12:08.412Z,5.10
2023-02-11T03:14:36.086Z,5.10
2023-02-11T03:17:05.959Z,5.00
2023-02-11T03:19:41.119Z,5.10
2023-02-11T03:22:22.187Z,5.10
2023-02-11T03:24:49.234Z,5.10
2023-02-11T03:27:26.375Z,5.10
2023-02-11T03:30:05.312Z,5.10
2023-02-11T03:32:49.255Z,5.00
2023-02-11T03:35:40.401Z,5.10
2023-02-11T03:38:14.093Z,5.10
2023-02-11T03:40:42.964Z,5.20
2023-02-11T03:43:17.104Z,5.10
2023-02-11T03:45:46.068Z,5.00
2023-02-11T03:48:16.235Z,5.10
2023-02-11T03:50:45.002Z,5.10
2023-02-11T03:53:13.119Z,5.10
2023-02-11T03:55:41.591Z,5.10
2023-02-11T03:58:09.002Z,5.10
2023-02-11T04:00:41.077Z,5.20
2023-02-11T04:03:09.456Z,5.10
2023-02-11T04:05:36.358Z,5.20
2023-02-11T04:08:04.143Z,5.20
2023-02-11T04:10:30.847Z,5.20
2023-02-11T04:12:57.666Z,5.20
2023-02-11T04:15:24.934Z,5.20
2023-02-11T04:17:51.765Z,5.20
2023-02-11T04:20:18.805Z,5.20
2023-02-11T04:22:45.554Z,5.20
2023-02-11T04:25:12.339Z,5.20
2023-02-11T04:27:39.156Z,5.20
2023-02-11T04:30:07.552Z,5.30
2023-02-11T04:32:34.273Z,5.30
2023-02-11T04:35:01.076Z,5.30
2023-02-11T04:37:27.795Z,5.30
2023-02-11T04:39:54.486Z,5.30
2023-02-11T04:42:21.220Z,5.30
2023-02-11T04:44:47.898Z,5.30
2023-02-11T04:47:15.372Z,5.30
2023-02-11T04:49:42.547Z,5.30
2023-02-11T04:52:09.407Z,5.30
2023-02-11T04:54:36.186Z,5.30
2023-02-11T04:57:02.938Z,5.20
2023-02-11T04:59:29.719Z,5.20
2023-02-11T05:01:56.832Z,5.20
2023-02-11T05:04:23.720Z,5.20
2023-02-11T05:06:50.680Z,5.20
2023-02-11T05:09:17.747Z,5.20
2023-02-11T05:11:44.472Z,5.20
2023-02-11T05:14:11.240Z,5.20
2023-02-11T05:16:38.022Z,5.20
2023-02-11T05:19:04.925Z,5.20
2023-02-11T05:21:31.659Z,5.20
2023-02-11T05:23:58.837Z,5.20
2023-02-11T05:26:26.357Z,5.20
2023-02-11T05:28:53.011Z,5.20
2023-02-11T05:31:19.755Z,5.30
2023-02-11T05:33:46.444Z,5.30
2023-02-11T05:36:14.345Z,5.30
2023-02-11T05:38:42.574Z,5.30
2023-02-11T05:41:10.343Z,5.30
2023-02-11T05:43:37.392Z,5.40
2023-02-11T05:46:05.081Z,5.40
2023-02-11T05:48:32.364Z,5.30
2023-02-11T05:50:59.630Z,5.30
2023-02-11T05:53:26.423Z,5.30
2023-02-11T05:55:53.577Z,5.30
2023-02-11T05:58:20.359Z,5.30
2023-02-11T06:00:47.086Z,5.30
2023-02-11T06:03:13.821Z,5.30
2023-02-11T06:05:42.062Z,5.30
2023-02-11T06:08:08.736Z,5.30
2023-02-11T06:10:35.511Z,5.40
2023-02-11T06:13:02.310Z,5.40
2023-02-11T06:15:29.112Z,5.40
2023-02-11T06:17:56.274Z,5.40
2023-02-11T06:20:23.045Z,5.40
2023-02-11T06:22:49.793Z,5.50
2023-02-11T06:25:16.580Z,5.60
2023-02-11T06:27:43.404Z,5.50
2023-02-11T06:30:10.750Z,5.50
2023-02-11T06:32:45.836Z,5.50
2023-02-11T06:35:14.504Z,5.50
2023-02-11T06:37:42.280Z,5.50
2023-02-11T06:40:10.182Z,5.50
2023-02-11T06:42:38.949Z,5.40
2023-02-11T06:45:06.247Z,5.50
2023-02-11T06:47:33.163Z,5.60
2023-02-11T06:49:59.921Z,5.50
2023-02-11T06:52:26.656Z,5.60
2023-02-11T06:54:53.434Z,5.70
2023-02-11T06:57:20.141Z,5.70
2023-02-11T06:59:46.856Z,5.80
2023-02-11T07:02:13.606Z,5.80
2023-02-11T07:04:40.400Z,5.80
2023-02-11T07:07:07.106Z,5.80
2023-02-11T07:09:33.956Z,5.90
2023-02-11T07:12:00.665Z,5.90
2023-02-11T07:14:27.412Z,5.90
2023-02-11T07:16:54.629Z,5.90
2023-02-11T07:19:21.489Z,5.90
2023-02-11T07:21:48.769Z,6.00
2023-02-11T07:24:15.661Z,6.00
2023-02-11T07:26:42.764Z,6.10
2023-02-11T07:29:09.450Z,6.20
2023-02-11T07:31:36.357Z,6.20
2023-02-11T07:34:03.701Z,6.30
2023-02-11T07:36:31.957Z,6.40
2023-02-11T07:39:00.172Z,6.40
2023-02-11T07:41:27.387Z,6.40
2023-02-11T07:43:54.523Z,6.40
2023-02-11T07:46:24.802Z,6.40
2023-02-11T07:48:52.384Z,6.40
2023-02-11T07:51:22.087Z,6.40
2023-02-11T07:53:49.289Z,6.40
2023-02-11T07:56:17.439Z,6.50
2023-02-11T07:58:44.396Z,6.50
2023-02-11T08:01:14.717Z,6.50
2023-02-11T08:03:44.905Z,6.50
2023-02-11T08:06:16.832Z,6.60
2023-02-11T08:08:43.854Z,6.60
2023-02-11T08:11:18.904Z,6.60
2023-02-11T08:13:45.714Z,6.60
2023-02-11T08:16:29.019Z,6.70
2023-02-11T08:18:57.755Z,6.70
2023-02-11T08:21:25.083Z,6.70
2023-02-11T08:23:52.202Z,6.70
2023-02-11T08:26:21.767Z,6.70
2023-02-11T08:28:51.293Z,6.70
2023-02-11T08:31:24.024Z,6.60
2023-02-11T08:33:51.214Z,6.60
2023-02-11T08:36:27.211Z,6.60
2023-02-11T08:39:12.122Z,6.60
2023-02-11T08:41:44.849Z,6.50
2023-02-11T08:44:11.719Z,6.60
2023-02-11T08:46:38.412Z,6.60
2023-02-11T08:49:05.284Z,6.60
2023-02-11T08:51:32.675Z,6.60
2023-02-11T08:54:00.522Z,6.60
2023-02-11T08:56:28.142Z,6.60
2023-02-11T08:58:55.200Z,6.60
2023-02-11T09:01:28.610Z,6.60
2023-02-11T09:03:56.483Z,6.60
2023-02-11T09:06:24.690Z,6.50
2023-02-11T09:08:53.624Z,6.50
2023-02-11T09:11:22.802Z,6.60
2023-02-11T09:13:50.512Z,6.50
2023-02-11T09:16:21.672Z,6.50
2023-02-11T09:18:49.411Z,6.70
2023-02-11T09:21:17.297Z,6.70
2023-02-11T09:23:44.808Z,6.70
2023-02-11T09:26:18.177Z,6.70
2023-02-11T09:28:45.014Z,6.70
2023-02-11T09:31:15.442Z,6.70
2023-02-11T09:33:47.846Z,6.80
2023-02-11T09:36:23.660Z,6.70
2023-02-11T09:38:50.517Z,6.80
2023-02-11T09:41:54.728Z,6.80
2023-02-11T09:44:24.947Z,6.80
2023-02-11T09:47:04.430Z,6.90
2023-02-11T09:49:45.400Z,6.80
2023-02-11T09:52:51.726Z,6.90
2023-02-11T09:55:18.638Z,6.90
2023-02-11T09:57:45.474Z,6.90
2023-02-11T10:00:36.836Z,6.90
2023-02-11T10:03:27.321Z,6.90
2023-02-11T10:05:53.961Z,6.90
2023-02-11T10:08:27.793Z,7.00
2023-02-11T10:11:07.236Z,7.00
2023-02-11T10:14:00.877Z,6.90
2023-02-11T10:16:51.553Z,7.00
2023-02-11T10:19:48.079Z,6.90
2023-02-11T10:22:29.918Z,7.00
2023-02-11T10:25:00.104Z,7.00
2023-02-11T10:27:36.469Z,7.00
2023-02-11T10:30:15.982Z,7.00
2023-02-11T10:33:05.595Z,7.10
2023-02-11T10:35:33.102Z,7.10
2023-02-11T10:38:00.330Z,7.20
2023-02-11T10:40:29.241Z,7.20
2023-02-11T10:43:03.464Z,7.20
2023-02-11T10:45:47.601Z,7.30
2023-02-11T10:48:38.600Z,7.30
2023-02-11T10:51:16.994Z,7.30
2023-02-11T10:53:44.750Z,7.30
2023-02-11T10:56:28.062Z,7.30
2023-02-11T10:59:15.615Z,7.30
2023-02-11T11:01:49.063Z,7.20
2023-02-11T11:04:33.696Z,7.30
2023-02-11T11:07:30.961Z,7.30
2023-02-11T11:10:07.008Z,7.30
2023-02-11T11:12:34.737Z,7.30
2023-02-11T11:15:10.589Z,7.30
2023-02-11T11:17:38.331Z,7.40
2023-02-11T11:20:27.636Z,7.30
2023-02-11T11:23:15.643Z,7.30
2023-02-11T11:25:46.311Z,7.30
2023-02-11T11:28:24.063Z,7.40
2023-02-11T11:30:53.997Z,7.40
2023-02-11T11:33:28.401Z,7.40
2023-02-11T11:36:06.712Z,7.40
2023-02-11T11:38:36.997Z,7.40
2023-02-11T11:41:23.891Z,7.40
2023-02-11T11:44:14.675Z,7.40
2023-02-11T11:46:44.105Z,7.40
2023-02-11T11:49:32.826Z,7.50
2023-02-11T11:52:02.615Z,7.50
2023-02-11T11:54:31.743Z,7.60
2023-02-11T11:57:06.414Z,7.60
2023-02-11T11:59:34.251Z,7.70
2023-02-11T12:02:40.982Z,7.80
2023-02-11T12:05:27.893Z,7.70
2023-02-11T12:07:59.600Z,7.70
2023-02-11T12:10:47.367Z,7.80
2023-02-11T12:13:20.243Z,7.70
2023-02-11T12:16:07.345Z,7.80
2023-02-11T12:18:38.590Z,7.80
2023-02-11T12:21:17.039Z,8.00
2023-02-11T12:23:44.102Z,8.10
2023-02-11T12:26:31.452Z,8.00
2023-02-11T12:29:10.458Z,8.00
2023-02-11T12:31:44.094Z,8.00
2023-02-11T12:34:36.401Z,8.00
2023-02-11T12:37:22.514Z,8.00
2023-02-11T12:40:14.122Z,8.10
2023-02-11T12:43:17.967Z,8.10
2023-02-11T12:46:00.265Z,8.00
2023-02-11T12:48:35.903Z,8.00
2023-02-11T12:51:02.718Z,8.10
2023-02-11T12:54:10.830Z,8.00
2023-02-11T12:56:50.630Z,8.10
2023-02-11T12:59:45.072Z,8.10
2023-02-11T13:02:44.633Z,8.10
2023-02-11T13:05:45.365Z,8.10
2023-02-11T13:08:30.541Z,8.20
2023-02-11T13:11:02.121Z,8.20
2023-02-11T13:13:46.432Z,8.20
2023-02-11T13:16:37.927Z,8.20
2023-02-11T13:19:13.884Z,8.20
2023-02-11T13:21:59.334Z,8.20
2023-02-11T13:25:01.265Z,8.20
2023-02-11T13:27:51.053Z,8.20
2023-02-11T13:30:29.437Z,8.10
2023-02-11T13:32:56.235Z,8.30
2023-02-11T13:35:33.653Z,8.30
2023-02-11T13:38:03.170Z,8.20
2023-02-11T13:40:35.080Z,8.30
2023-02-11T13:43:03.781Z,8.20
2023-02-11T13:45:41.366Z,8.20
2023-02-11T13:48:15.843Z,8.20
2023-02-11T13:50:48.504Z,8.20
2023-02-11T13:53:16.986Z,8.20
2023-02-11T13:55:49.911Z,8.20
2023-02-11T13:58:19.990Z,8.20
2023-02-11T14:00:49.948Z,8.20
2023-02-11T14:03:43.678Z,8.20
2023-02-11T14:06:30.049Z,8.20
2023-02-11T14:08:59.448Z,8.20
2023-02-11T14:11:41.598Z,8.20
2023-02-11T14:14:19.119Z,8.10
2023-02-11T14:17:18.885Z,8.10
2023-02-11T14:19:47.814Z,8.10
2023-02-11T14:22:47.704Z,8.10
2023-02-11T14:25:24.204Z,8.10
2023-02-11T14:27:55.215Z,8.10
2023-02-11T14:30:43.622Z,8.10
2023-02-11T14:33:36.131Z,8.20
2023-02-11T14:36:16.089Z,8.10
2023-02-11T14:38:45.483Z,8.20
2023-02-11T14:41:18.760Z,8.20
2023-02-11T14:44:01.007Z,8.10
2023-02-11T14:46:32.825Z,8.20
2023-02-11T14:49:03.471Z,8.10
2023-02-11T14:51:36.076Z,8.10
2023-02-11T14:54:24.032Z,8.10
2023-02-11T14:57:07.919Z,8.10
2023-02-11T14:59:34.735Z,8.10
2023-02-11T15:02:01.802Z,8.10
2023-02-11T15:04:33.597Z,8.10
2023-02-11T15:07:07.084Z,8.10
2023-02-11T15:09:45.410Z,8.10
2023-02-11T15:12:23.719Z,8.10
2023-02-11T15:14:56.157Z,8.10
2023-02-11T15:17:26.174Z,8.10
2023-02-11T15:19:56.740Z,8.10
2023-02-11T15:22:29.881Z,8.10
2023-02-11T15:25:10.279Z,8.10
2023-02-11T15:27:42.283Z,8.10
2023-02-11T15:30:25.546Z,8.10
2023-02-11T15:32:59.807Z,8.10
2023-02-11T15:35:29.641Z,8.10
2023-02-11T15:37:57.979Z,8.10
2023-02-11T15:40:32.370Z,8.10
2023-02-11T15:43:02.782Z,8.10
2023-02-11T15:45:42.462Z,8.10
2023-02-11T15:48:12.631Z,8.10
2023-02-11T15:50:41.624Z,8.10
2023-02-11T15:53:31.391Z,8.00
2023-02-11T15:56:30.491Z,8.10
2023-02-11T16:01:40.956Z,8.10
2023-02-11T16:04:14.807Z,8.10
2023-02-11T16:06:43.534Z,8.10
2023-02-11T16:09:10.991Z,8.20
2023-02-11T16:11:55.818Z,8.10
2023-02-11T16:14:34.547Z,8.20
2023-02-11T16:17:01.225Z,8.10
2023-02-11T16:19:30.150Z,8.10
2023-02-11T16:21:59.688Z,8.10
2023-02-11T16:24:29.911Z,8.10
2023-02-11T16:27:06.124Z,8.10
2023-02-11T16:29:36.189Z,8.10
2023-02-11T16:32:10.612Z,8.20
2023-02-11T16:34:37.568Z,8.10
2023-02-11T16:37:06.141Z,8.20
2023-02-11T16:39:33.699Z,8.20
2023-02-11T16:42:00.826Z,8.20
2023-02-11T16:44:28.347Z,8.20
2023-02-11T16:46:58.422Z,8.20
2023-02-11T16:49:30.387Z,8.20
2023-02-11T16:52:03.417Z,8.20
2023-02-11T16:54:30.641Z,8.20
2023-02-11T16:56:57.806Z,8.20
2023-02-11T16:59:24.522Z,8.20
2023-02-11T17:01:53.640Z,8.20
2023-02-11T17:04:26.164Z,8.20
2023-02-11T17:06:52.894Z,8.20
2023-02-11T17:09:23.157Z,8.20
2023-02-11T17:11:50.937Z,8.20
2023-02-11T17:14:18.519Z,8.20
2023-02-11T17:16:46.593Z,8.20
2023-02-11T17:22:07.052Z,8.20
2023-02-11T17:24:33.725Z,8.20
2023-02-11T17:27:00.403Z,8.20
2023-02-11T17:29:27.172Z,8.30
2023-02-11T17:31:54.071Z,8.30
2023-02-11T17:34:22.218Z,8.30
2023-02-11T17:36:49.302Z,8.30
2023-02-11T17:39:16.693Z,8.30
2023-02-11T17:41:43.446Z,8.30
2023-02-11T17:44:12.418Z,8.30
2023-02-11T17:46:39.413Z,8.30
2023-02-11T17:49:06.197Z,8.30
2023-02-11T17:51:38.568Z,8.30
2023-02-11T17:54:12.127Z,8.30
2023-02-11T17:56:39.223Z,8.30
2023-02-11T17:59:08.553Z,8.30
2023-02-11T18:01:36.385Z,8.30
2023-02-11T18:04:04.258Z,8.30
2023-02-11T18:06:33.675Z,8.30
2023-02-11T18:09:02.458Z,8.30
2023-02-11T18:11:31.206Z,8.30
2023-02-11T18:14:02.172Z,8.30
2023-02-11T18:16:30.298Z,8.30
2023-02-11T18:18:58.278Z,8.30
2023-02-11T18:21:25.628Z,8.30
2023-02-11T18:23:52.946Z,8.30
2023-02-11T18:26:21.900Z,8.30
2023-02-11T18:28:48.653Z,8.40
2023-02-11T18:31:15.675Z,8.30
2023-02-11T18:33:42.810Z,8.40
2023-02-11T18:36:12.261Z,8.40
2023-02-11T18:38:39.654Z,8.40
2023-02-11T18:41:10.060Z,8.40
2023-02-11T18:43:36.945Z,8.40
2023-02-11T18:46:08.667Z,8.40
2023-02-11T18:48:36.120Z,8.40
2023-02-11T18:51:07.546Z,8.40
2023-02-11T18:53:34.218Z,8.40
2023-02-11T18:56:05.896Z,8.40
2023-02-11T18:58:32.648Z,8.40
2023-02-11T19:00:59.473Z,8.40
2023-02-11T19:03:26.185Z,8.30
2023-02-11T19:05:54.629Z,8.30
2023-02-11T19:08:21.398Z,8.30
2023-02-11T19:10:49.451Z,8.40
2023-02-11T19:13:16.138Z,8.40
2023-02-11T19:15:44.806Z,8.30
2023-02-11T19:18:16.026Z,8.30
2023-02-11T19:20:44.135Z,8.30
2023-02-11T19:23:11.504Z,8.40
2023-02-11T19:25:44.378Z,8.30
2023-02-11T19:28:11.116Z,8.30
2023-02-11T19:30:37.935Z,8.30
2023-02-11T19:33:04.730Z,8.30
2023-02-11T19:35:35.645Z,8.30
2023-02-11T19:38:03.650Z,8.40
2023-02-11T19:40:30.795Z,8.30
2023-02-11T19:42:57.582Z,8.30
2023-02-11T19:45:24.397Z,8.40
2023-02-11T19:47:55.648Z,8.40
2023-02-11T19:50:22.848Z,8.30
2023-02-11T19:52:49.695Z,8.30
2023-02-11T19:55:16.484Z,8.30
2023-02-11T19:57:43.232Z,8.20
2023-02-11T20:00:11.156Z,8.20
2023-02-11T20:02:39.460Z,8.20
2023-02-11T20:05:07.142Z,8.10
2023-02-11T20:07:34.536Z,8.20
2023-02-11T20:10:01.436Z,8.20
2023-02-11T20:12:28.248Z,8.20
2023-02-11T20:14:55.034Z,8.20
2023-02-11T20:17:21.739Z,8.20
2023-02-11T20:19:48.454Z,8.10
2023-02-11T20:22:15.143Z,8.20
2023-02-11T20:24:41.929Z,8.20
2023-02-11T20:27:11.308Z,8.20
2023-02-11T20:29:39.394Z,8.10
2023-02-11T20:32:07.334Z,8.10
2023-02-11T20:34:34.429Z,8.00
2023-02-11T20:37:02.139Z,8.10
2023-02-11T20:39:28.935Z,8.10
2023-02-11T20:41:56.599Z,8.10
2023-02-11T20:44:23.512Z,8.00
2023-02-11T20:46:54.083Z,8.00
2023-02-11T20:49:23.841Z,8.00
2023-02-11T20:51:52.437Z,8.00
2023-02-11T20:54:21.197Z,7.90
2023-02-11T20:56:51.078Z,8.00
2023-02-11T20:59:18.596Z,8.00
2023-02-11T21:01:53.322Z,8.00
2023-02-11T21:04:22.688Z,7.90
2023-02-11T21:06:53.078Z,7.90
2023-02-11T21:09:22.973Z,7.90
2023-02-11T21:11:51.549Z,7.90
2023-02-11T21:14:19.697Z,7.90
2023-02-11T21:16:47.467Z,7.90
2023-02-11T21:19:14.668Z,8.00
2023-02-11T21:21:41.690Z,7.90
2023-02-11T21:24:10.152Z,8.00
2023-02-11T21:26:37.841Z,8.00
2023-02-11T21:29:06.444Z,8.00
2023-02-11T21:31:34.374Z,8.00
2023-02-11T21:34:01.417Z,8.00
2023-02-11T21:36:29.432Z,8.00
2023-02-11T21:38:56.485Z,8.00
2023-02-11T21:41:24.710Z,8.00
2023-02-11T21:43:51.906Z,8.00
2023-02-11T21:46:19.929Z,8.00
2023-02-11T21:48:46.871Z,8.00
2023-02-11T21:51:16.205Z,8.00
2023-02-11T21:53:43.269Z,8.00
2023-02-11T21:56:15.824Z,8.00
2023-02-11T21:58:43.772Z,8.00
2023-02-11T22:01:18.835Z,8.00
2023-02-11T22:03:46.508Z,8.00
2023-02-11T22:06:16.294Z,8.00
2023-02-11T22:08:43.066Z,8.00
2023-02-11T22:11:12.091Z,8.00
2023-02-11T22:13:39.341Z,8.10
2023-02-11T22:16:12.462Z,8.00
2023-02-11T22:18:39.481Z,8.00
2023-02-11T22:21:15.683Z,8.10
2023-02-11T22:23:42.883Z,8.10
2023-02-11T22:26:16.067Z,8.00
2023-02-11T22:28:43.431Z,8.00
2023-02-11T22:31:16.348Z,8.00
2023-02-11T22:33:43.380Z,8.10
2023-02-11T22:36:17.617Z,8.00
2023-02-11T22:38:44.435Z,8.10
2023-02-11T22:41:12.176Z,8.00
2023-02-11T22:43:41.359Z,8.10
2023-02-11T22:46:08.839Z,8.00
2023-02-11T22:48:35.941Z,8.00
2023-02-11T22:51:12.058Z,8.00
2023-02-11T22:53:39.405Z,8.00
2023-02-11T22:56:09.851Z,8.00
2023-02-11T22:58:36.692Z,8.00
2023-02-11T23:01:04.945Z,8.00
2023-02-11T23:03:32.826Z,8.00
2023-02-11T23:06:00.572Z,8.00
2023-02-11T23:08:28.277Z,8.00
2023-02-11T23:10:55.298Z,8.00
2023-02-11T23:13:22.173Z,8.00
2023-02-11T23:15:48.842Z,8.00
2023-02-11T23:18:15.586Z,8.00
2023-02-11T23:20:43.834Z,7.90
2023-02-11T23:23:10.761Z,7.90
2023-02-11T23:25:42.525Z,8.00
2023-02-11T23:28:09.866Z,8.00
2023-02-11T23:30:36.635Z,7.90
2023-02-11T23:33:03.380Z,7.90
2023-02-11T23:35:30.182Z,7.80
2023-02-11T23:37:56.890Z,7.80
2023-02-11T23:40:23.559Z,7.80
2023-02-11T23:42:50.571Z,7.80
2023-02-11T23:45:17.285Z,7.90
2023-02-11T23:47:44.989Z,7.90
2023-02-11T23:50:12.045Z,7.90
2023-02-11T23:52:39.089Z,7.90
2023-02-11T23:55:06.040Z,7.80
2023-02-11T23:57:33.269Z,7.80
